Holcombe, WI (54745)

4:02 AM CST on December 08, 2016 (GMT -0600)
Norma | | Change Station

Elev 1070 ft 45.23 °N, 91.19 °W | Updated 2 seconds ago

Overcast
Overcast
15.2 °F
Feels Like 9 °F
N
4.0
Wind Variable Wind from West

Today
High -- | Low -- °F
--% Chance of Precip.
Yesterday
High -- | Low -- °F
Precip. -- in
Pressure 30.05 in
Visibility 5.0 miles
Clouds Mostly Cloudy 2100 ft
Overcast 2800 ft
Windchill 9 °F
Dew Point 12 °F
Humidity 90%
Rainfall 0.00 in
Snow Depth Not available.
7:31 AM 4:22 PM
First Quarter, 62% visible
METAR KRCX 080955Z AUTO 26009KT 5SM -SN BKN021 OVC028 M08/M10 A3005 RMK AO2 T10801100
Pressure 30.05 in
Visibility 5.0 miles
Clouds Mostly Cloudy 2100 ft
Overcast 2800 ft
Windchill 9 °F
Dew Point 12 °F
Humidity 90%
Rainfall 0.00 in
Snow Depth Not available.
7:31 AM 4:22 PM
First Quarter, 62% visible
METAR KRCX 080955Z AUTO 26009KT 5SM -SN BKN021 OVC028 M08/M10 A3005 RMK AO2 T10801100

10-Day Weather Forecast

Almanac

Astronomy

Dec. 08, 2016 Rise Set
Actual Time
Civil Twilight
Nautical Twilight
Astronomical Twilight
Moon
Length of Visible Light
Length of Day
Tomorrow will be .
, % of the Moon is Illuminated

Today's Extremes

State Highs State Lows

Community

WunderPhotos

Upload Photos

1,956,261 photos uploaded!

WunderBlog® & News

Nearby

Air Quality

  Air Quality AQ Index Pollutant
Not available.

Snow Depth

Station Depth Elevation

Earthquake Activity

City Distance Mag. Time & Date
Minimum magnitude displayed is 2.5.

Coastal Water Temperatures

Place Temperature

Stations

Nearby Weather Stations

Station Location Temp. Windchill Dew Point Humidity Wind Precip. Elev Updated Type
                   

Watches & Warnings

There are currently no watches in effect.